Terminal Aerodrome Forecast
Issued by NWS

Home | Current Version | Previous Version | Text Only | Print | Product List | Glossary On
Versions: 1 2 3 4 5 6 7 8 9 10 11 12 13 14 15 16 17 18 19
000
FTUS41 KILN 162300
TAFLCK
TAF
KLCK 162325Z 1700/1724 VRB03KT P6SM SCT040
     FM170600 00000KT 4SM BR SCT040
     FM170800 00000KT 1SM BR SCT002 SCT040
      TEMPO 1709/1712 1/4SM FG VV002
     FM171300 VRB03KT 2SM BR SCT002 SCT040
     FM171400 VRB03KT P6SM SCT035
     FM171600 25004KT P6SM BKN035
     FM172300 32004KT P6SM BKN120=

USA.gov is the U.S. government's official web portal to all federal, state and local government web resources and services.